Time;durP1;ratioP1;P1;durP2;ratioP2;P2;SDS_P1;SDS_P2;PMS_P1;PMS_P2;Temp;Humidity;BMP_temperature;BMP_pressure;BME280_temperature;BME280_humidity;BME280_pressure;Samples;Min_cycle;Max_cycle;Signal;HPM_P1;HPM_P2
2021/04/18 00:01:59;;;;;;;7.15;6.45;;;;;;;;;;4937700;29;20063;-72
2021/04/18 00:04:25;;;;;;;8.68;6.38;;;;;;;;;;4937595;29;20048;-72
2021/04/18 00:06:51;;;;;;;8.60;6.78;;;;;;;;;;4935498;29;20055;-70
2021/04/18 00:09:17;;;;;;;7.22;6.47;;;;;;;;;;4920509;29;20047;-73
2021/04/18 00:11:44;;;;;;;6.95;6.25;;;;;;;;;;4937703;29;20107;-73
2021/04/18 00:14:10;;;;;;;7.43;6.07;;;;;;;;;;4920868;29;20051;-73
2021/04/18 00:16:37;;;;;;;6.78;6.18;;;;;;;;;;4935717;29;20055;-73
2021/04/18 00:19:04;;;;;;;6.80;6.10;;;;;;;;;;4936379;29;20047;-73
2021/04/18 00:21:30;;;;;;;7.53;6.07;;;;;;;;;;4936302;29;20490;-73
2021/04/18 00:23:56;;;;;;;8.07;6.97;;;;;;;;;;4936286;29;20115;-72
2021/04/18 00:26:22;;;;;;;9.20;6.93;;;;;;;;;;4919774;29;20079;-71
2021/04/18 00:28:49;;;;;;;8.07;6.80;;;;;;;;;;4920450;29;20055;-71
2021/04/18 00:31:15;;;;;;;7.53;6.80;;;;;;;;;;4920403;29;20059;-70
2021/04/18 00:33:41;;;;;;;8.27;6.65;;;;;;;;;;4942719;29;20051;-70
2021/04/18 00:36:18;;;;;;;9.13;7.05;;;;;;;;;;4934048;29;20063;-72
2021/04/18 00:38:44;;;;;;;9.18;8.15;;;;;;;;;;4932762;29;20056;-72
2021/04/18 00:41:11;;;;;;;9.43;7.55;;;;;;;;;;4948490;29;20478;-73
2021/04/18 00:43:42;;;;;;;9.50;7.60;;;;;;;;;;4932104;29;20437;-73
2021/04/18 00:46:10;;;;;;;10.00;7.75;;;;;;;;;;4924907;29;20475;-72
2021/04/18 00:48:42;;;;;;;8.77;7.82;;;;;;;;;;4935719;29;20055;-72
2021/04/18 00:51:09;;;;;;;8.43;7.45;;;;;;;;;;4919972;29;20471;-72
2021/04/18 00:53:36;;;;;;;8.77;7.32;;;;;;;;;;4936958;29;20047;-73
2021/04/18 00:56:03;;;;;;;9.25;8.32;;;;;;;;;;4919583;29;20074;-72
2021/04/18 00:58:30;;;;;;;13.43;9.77;;;;;;;;;;4936772;29;20495;-73
2021/04/18 01:00:56;;;;;;;16.58;11.57;;;;;;;;;;4921645;29;20059;-73
2021/04/18 01:03:22;;;;;;;13.00;10.05;;;;;;;;;;4921580;29;20455;-74
2021/04/18 01:05:48;;;;;;;12.85;8.77;;;;;;;;;;4905575;29;20439;-74
2021/04/18 01:08:15;;;;;;;12.70;8.65;;;;;;;;;;4937345;29;20047;-74
2021/04/18 01:10:41;;;;;;;13.18;8.80;;;;;;;;;;4937569;29;20055;-73
2021/04/18 01:13:07;;;;;;;12.15;8.98;;;;;;;;;;4937601;29;20052;-73
2021/04/18 01:15:33;;;;;;;11.25;9.07;;;;;;;;;;4936607;29;20063;-73
2021/04/18 01:17:59;;;;;;;10.10;8.90;;;;;;;;;;4937945;29;20447;-74
2021/04/18 01:20:25;;;;;;;10.93;8.30;;;;;;;;;;4921467;29;20503;-74
2021/04/18 01:22:53;;;;;;;10.00;8.70;;;;;;;;;;4936477;29;20048;-74
2021/04/18 01:25:19;;;;;;;8.88;8.02;;;;;;;;;;4920634;29;20103;-73
2021/04/18 01:27:47;;;;;;;9.57;8.50;;;;;;;;;;4937645;29;20060;-74
2021/04/18 01:30:28;;;;;;;10.50;8.75;;;;;;;;;;4937830;29;20079;-74
2021/04/18 01:32:57;;;;;;;10.90;8.73;;;;;;;;;;4938178;29;20056;-71
2021/04/18 01:35:23;;;;;;;9.82;8.75;;;;;;;;;;4938345;29;20060;-73
2021/04/18 01:37:50;;;;;;;12.73;8.65;;;;;;;;;;4907118;29;20061;-74
2021/04/18 01:40:20;;;;;;;9.13;8.23;;;;;;;;;;4939718;29;20086;-74
2021/04/18 01:42:47;;;;;;;9.70;7.70;;;;;;;;;;4925462;29;20106;-74
2021/04/18 01:45:14;;;;;;;8.75;7.93;;;;;;;;;;4925533;29;20059;-70
2021/04/18 01:47:40;;;;;;;9.75;8.45;;;;;;;;;;4936825;29;20138;-73
2021/04/18 01:50:08;;;;;;;9.05;7.80;;;;;;;;;;4920143;29;20103;-73
2021/04/18 01:52:35;;;;;;;9.88;8.68;;;;;;;;;;4935875;29;20094;-73
2021/04/18 01:55:01;;;;;;;9.32;8.32;;;;;;;;;;4935272;29;20079;-73
2021/04/18 01:57:27;;;;;;;10.02;8.95;;;;;;;;;;4935190;29;20491;-72
2021/04/18 01:59:53;;;;;;;10.05;8.85;;;;;;;;;;4935964;29;20055;-73
2021/04/18 02:02:19;;;;;;;8.50;7.68;;;;;;;;;;4935565;29;20127;-73
2021/04/18 02:04:46;;;;;;;9.63;8.40;;;;;;;;;;4937143;29;20055;-73
2021/04/18 02:07:12;;;;;;;15.60;8.32;;;;;;;;;;4918940;29;20181;-73
2021/04/18 02:09:38;;;;;;;8.45;7.55;;;;;;;;;;4905133;29;20086;-74
2021/04/18 02:12:07;;;;;;;9.30;8.38;;;;;;;;;;4939753;29;20066;-74
2021/04/18 02:14:34;;;;;;;10.30;8.98;;;;;;;;;;4938445;29;20055;-74
2021/04/18 02:17:04;;;;;;;10.95;8.60;;;;;;;;;;4937994;29;20056;-72
2021/04/18 02:19:31;;;;;;;10.95;9.10;;;;;;;;;;4935249;29;20502;-73
2021/04/18 02:21:57;;;;;;;10.55;8.75;;;;;;;;;;4933811;29;20566;-73
2021/04/18 02:24:23;;;;;;;9.10;8.20;;;;;;;;;;4934009;29;20165;-73
2021/04/18 02:26:50;;;;;;;9.95;8.43;;;;;;;;;;4917545;29;20083;-73
2021/04/18 02:29:16;;;;;;;9.63;8.63;;;;;;;;;;4918219;29;20134;-73
2021/04/18 02:31:43;;;;;;;9.98;8.98;;;;;;;;;;4933812;29;20047;-73
2021/04/18 02:34:10;;;;;;;11.05;9.77;;;;;;;;;;4934021;29;20048;-73
2021/04/18 02:36:36;;;;;;;11.13;9.00;;;;;;;;;;4917553;29;20056;-72
2021/04/18 02:39:05;;;;;;;10.15;9.10;;;;;;;;;;4918144;29;20554;-73
2021/04/18 02:41:31;;;;;;;10.15;9.15;;;;;;;;;;4918205;29;20052;-73
2021/04/18 02:43:57;;;;;;;9.85;8.80;;;;;;;;;;4918179;29;20048;-73
2021/04/18 02:46:23;;;;;;;10.15;9.13;;;;;;;;;;4932953;29;20111;-73
2021/04/18 02:48:50;;;;;;;11.63;9.63;;;;;;;;;;4918232;29;20060;-73
2021/04/18 02:51:16;;;;;;;10.90;9.45;;;;;;;;;;4933697;29;20130;-73
2021/04/18 02:53:42;;;;;;;11.68;10.48;;;;;;;;;;4933772;29;20047;-73
2021/04/18 02:56:08;;;;;;;13.20;9.80;;;;;;;;;;4934128;29;20052;-73
2021/04/18 02:58:34;;;;;;;11.02;9.93;;;;;;;;;;4934769;29;20693;-73
2021/04/18 03:01:00;;;;;;;11.88;8.95;;;;;;;;;;4917775;29;20503;-72
2021/04/18 03:03:26;;;;;;;11.50;10.27;;;;;;;;;;4933537;29;20111;-72
2021/04/18 03:05:53;;;;;;;11.18;9.75;;;;;;;;;;4934165;29;20197;-73
2021/04/18 03:08:19;;;;;;;12.57;10.02;;;;;;;;;;4934070;29;20055;-73
2021/04/18 03:10:45;;;;;;;11.15;9.95;;;;;;;;;;4903603;29;20055;-73
2021/04/18 03:13:11;;;;;;;12.10;10.75;;;;;;;;;;4919324;29;20051;-72
2021/04/18 03:15:37;;;;;;;12.32;9.90;;;;;;;;;;4917909;29;20102;-72
2021/04/18 03:18:04;;;;;;;11.48;9.57;;;;;;;;;;4935230;29;20079;-74
2021/04/18 03:20:30;;;;;;;11.90;9.80;;;;;;;;;;4902597;29;20058;-71
2021/04/18 03:22:57;;;;;;;12.63;10.98;;;;;;;;;;4918103;29;20044;-71
2021/04/18 03:25:23;;;;;;;12.95;10.50;;;;;;;;;;4917526;29;20051;-71
2021/04/18 03:27:52;;;;;;;11.18;10.07;;;;;;;;;;4918528;29;20062;-73
2021/04/18 03:30:19;;;;;;;11.63;9.85;;;;;;;;;;4918080;29;20055;-73
2021/04/18 03:32:45;;;;;;;11.68;10.02;;;;;;;;;;4917892;29;20066;-71
2021/04/18 03:35:12;;;;;;;12.43;11.13;;;;;;;;;;4917937;29;20051;-73
2021/04/18 03:37:38;;;;;;;11.48;9.82;;;;;;;;;;4917820;29;20464;-73
2021/04/18 03:40:05;;;;;;;15.10;11.65;;;;;;;;;;4917793;29;20439;-72
2021/04/18 03:42:31;;;;;;;11.73;10.52;;;;;;;;;;4917177;29;20047;-72
2021/04/18 03:45:01;;;;;;;11.93;10.65;;;;;;;;;;4917857;29;20126;-72
2021/04/18 03:47:27;;;;;;;12.27;10.80;;;;;;;;;;4933892;29;20052;-72
2021/04/18 03:49:53;;;;;;;12.23;10.68;;;;;;;;;;4918245;29;20080;-73
2021/04/18 03:52:19;;;;;;;11.70;10.50;;;;;;;;;;4917514;29;20052;-71
2021/04/18 03:54:45;;;;;;;11.57;10.38;;;;;;;;;;4934325;29;20059;-71
2021/04/18 03:57:12;;;;;;;11.38;10.15;;;;;;;;;;4933542;29;20051;-70
2021/04/18 03:59:38;;;;;;;11.45;10.30;;;;;;;;;;4901671;29;20111;-71
2021/04/18 04:02:04;;;;;;;10.95;9.85;;;;;;;;;;4933208;29;20474;-71
2021/04/18 04:04:31;;;;;;;14.02;10.95;;;;;;;;;;4932884;29;20089;-71
2021/04/18 04:09:29;;;;;;;11.23;10.07;;;;;;;;;;4912243;29;20482;-71
2021/04/18 04:11:56;;;;;;;11.90;9.75;;;;;;;;;;4915446;29;20063;-71
2021/04/18 04:14:22;;;;;;;13.70;10.40;;;;;;;;;;4915231;29;20426;-71
2021/04/18 04:16:48;;;;;;;12.98;10.93;;;;;;;;;;4897800;29;20052;-71
2021/04/18 04:19:14;;;;;;;13.80;10.88;;;;;;;;;;4916174;29;20135;-71
2021/04/18 04:21:40;;;;;;;14.30;10.95;;;;;;;;;;4918915;29;20056;-71
2021/04/18 04:24:07;;;;;;;13.50;10.95;;;;;;;;;;4918683;29;20051;-72
2021/04/18 04:26:33;;;;;;;15.50;10.75;;;;;;;;;;4917892;29;20119;-72
2021/04/18 04:28:59;;;;;;;12.98;10.88;;;;;;;;;;4918525;29;20107;-72
2021/04/18 04:31:26;;;;;;;12.07;10.55;;;;;;;;;;4918300;29;20354;-71
2021/04/18 04:33:52;;;;;;;11.75;10.55;;;;;;;;;;4918287;29;20059;-71
2021/04/18 04:36:19;;;;;;;13.82;12.35;;;;;;;;;;4898719;29;20108;-71
2021/04/18 04:38:45;;;;;;;12.57;11.27;;;;;;;;;;4899607;29;20057;-72
2021/04/18 04:41:11;;;;;;;14.93;11.50;;;;;;;;;;4899433;29;20465;-71
2021/04/18 04:43:37;;;;;;;13.55;11.48;;;;;;;;;;4899349;29;20048;-71
2021/04/18 04:46:04;;;;;;;14.65;12.50;;;;;;;;;;4898728;29;20423;-71
2021/04/18 04:48:31;;;;;;;14.88;11.85;;;;;;;;;;4898988;29;20067;-72
2021/04/18 04:50:57;;;;;;;16.60;13.23;;;;;;;;;;4899272;29;20056;-72
2021/04/18 04:53:23;;;;;;;14.98;12.73;;;;;;;;;;4899063;29;20057;-71
2021/04/18 04:55:49;;;;;;;13.25;11.50;;;;;;;;;;4898607;29;20052;-71
2021/04/18 04:58:15;;;;;;;13.57;12.13;;;;;;;;;;4899231;29;20057;-71
2021/04/18 05:00:41;;;;;;;14.25;12.50;;;;;;;;;;4882084;29;20500;-71
2021/04/18 05:03:08;;;;;;;13.20;11.23;;;;;;;;;;4898928;29;20052;-71
2021/04/18 05:05:35;;;;;;;13.75;10.63;;;;;;;;;;4901043;29;20055;-71
2021/04/18 05:08:01;;;;;;;11.75;10.10;;;;;;;;;;4917328;29;20087;-72
2021/04/18 05:10:27;;;;;;;12.57;11.23;;;;;;;;;;4900813;29;20060;-71
2021/04/18 05:12:53;;;;;;;12.57;9.75;;;;;;;;;;4915863;29;20479;-71
2021/04/18 05:15:22;;;;;;;11.50;9.88;;;;;;;;;;4898964;29;20052;-71
2021/04/18 05:17:51;;;;;;;10.85;9.63;;;;;;;;;;4904445;29;20057;-71
2021/04/18 05:20:18;;;;;;;12.98;9.70;;;;;;;;;;4906013;29;20044;-71
2021/04/18 05:22:45;;;;;;;11.68;10.48;;;;;;;;;;4915900;29;20045;-71
2021/04/18 05:25:13;;;;;;;12.57;10.25;;;;;;;;;;4904469;29;20340;-71
2021/04/18 05:27:40;;;;;;;14.30;10.20;;;;;;;;;;4897861;29;20057;-70
2021/04/18 05:30:08;;;;;;;13.27;11.23;;;;;;;;;;4898135;29;20531;-71
2021/04/18 05:32:35;;;;;;;11.35;10.15;;;;;;;;;;4898206;29;20056;-71
2021/04/18 05:35:07;;;;;;;13.32;10.75;;;;;;;;;;4897189;29;20088;-71
2021/04/18 05:37:33;;;;;;;12.25;10.57;;;;;;;;;;4897371;29;20111;-71
2021/04/18 05:39:59;;;;;;;13.85;10.45;;;;;;;;;;4881746;29;20060;-71
2021/04/18 05:42:25;;;;;;;12.65;10.05;;;;;;;;;;4898086;29;20056;-71
2021/04/18 05:44:51;;;;;;;11.23;10.13;;;;;;;;;;4881722;29;20056;-71
2021/04/18 05:47:18;;;;;;;12.43;10.98;;;;;;;;;;4897354;29;20492;-71
2021/04/18 05:49:44;;;;;;;11.15;9.93;;;;;;;;;;4897988;29;20057;-72
2021/04/18 05:52:10;;;;;;;11.10;9.80;;;;;;;;;;4898594;29;20053;-72
2021/04/18 05:54:37;;;;;;;13.73;11.00;;;;;;;;;;4898104;29;20044;-72
2021/04/18 05:57:03;;;;;;;10.50;9.38;;;;;;;;;;4897399;29;20467;-71
2021/04/18 05:59:29;;;;;;;12.50;10.15;;;;;;;;;;4897877;29;20495;-72
2021/04/18 06:01:55;;;;;;;12.25;10.13;;;;;;;;;;4897743;29;20092;-73
2021/04/18 06:04:22;;;;;;;13.15;9.93;;;;;;;;;;4898185;29;20056;-72
2021/04/18 06:06:48;;;;;;;12.27;9.13;;;;;;;;;;4915815;29;20513;-72
2021/04/18 06:09:14;;;;;;;11.25;9.07;;;;;;;;;;4916358;29;20103;-72
2021/04/18 06:11:40;;;;;;;10.02;8.57;;;;;;;;;;4916277;29;20047;-72
2021/04/18 06:14:07;;;;;;;10.77;9.20;;;;;;;;;;4916531;29;20052;-72
2021/04/18 06:16:33;;;;;;;12.15;9.00;;;;;;;;;;4915648;29;20116;-72
2021/04/18 06:18:59;;;;;;;10.40;9.30;;;;;;;;;;4916296;29;20054;-73
2021/04/18 06:21:25;;;;;;;10.50;8.30;;;;;;;;;;4916473;29;20056;-73
2021/04/18 06:23:51;;;;;;;10.13;9.13;;;;;;;;;;4916265;29;20056;-72
2021/04/18 06:26:17;;;;;;;11.50;8.98;;;;;;;;;;4915736;29;20048;-72
2021/04/18 06:28:43;;;;;;;9.90;8.18;;;;;;;;;;4916207;29;20060;-72
2021/04/18 06:31:09;;;;;;;10.68;8.48;;;;;;;;;;4915970;29;20052;-72
2021/04/18 06:33:36;;;;;;;10.60;8.57;;;;;;;;;;4915980;29;20091;-72
2021/04/18 06:36:07;;;;;;;9.55;8.55;;;;;;;;;;4915358;29;20515;-72
2021/04/18 06:38:33;;;;;;;8.88;7.95;;;;;;;;;;4915920;29;20368;-72
2021/04/18 06:41:00;;;;;;;9.43;8.40;;;;;;;;;;4915742;29;20471;-71
2021/04/18 06:43:27;;;;;;;12.57;8.30;;;;;;;;;;4914641;29;20048;-71
2021/04/18 06:45:53;;;;;;;9.02;8.13;;;;;;;;;;4915450;29;20103;-71
2021/04/18 06:48:33;;;;;;;10.13;8.68;;;;;;;;;;4915841;29;20415;-71
2021/04/18 06:50:59;;;;;;;10.07;8.55;;;;;;;;;;4915888;29;20056;-71
2021/04/18 06:53:25;;;;;;;11.57;9.40;;;;;;;;;;4915990;29;20048;-71
2021/04/18 06:55:52;;;;;;;11.88;9.10;;;;;;;;;;4914022;29;20052;-71
2021/04/18 06:58:18;;;;;;;14.07;9.85;;;;;;;;;;4914483;29;20048;-71
2021/04/18 07:00:44;;;;;;;10.07;8.95;;;;;;;;;;4915910;29;20468;-71
2021/04/18 07:03:13;;;;;;;10.27;8.55;;;;;;;;;;4915692;29;20052;-71
2021/04/18 07:05:44;;;;;;;13.15;10.30;;;;;;;;;;4914836;29;20435;-71
2021/04/18 07:08:21;;;;;;;12.27;9.50;;;;;;;;;;4915306;29;20111;-71
2021/04/18 07:10:47;;;;;;;11.07;9.20;;;;;;;;;;4915598;29;20132;-73
2021/04/18 07:13:17;;;;;;;9.82;8.82;;;;;;;;;;4898798;29;20504;-73
2021/04/18 07:15:45;;;;;;;11.30;9.25;;;;;;;;;;4915172;29;20055;-73
2021/04/18 07:18:39;;;;;;;9.75;8.27;;;;;;;;;;4914529;29;20052;-73
2021/04/18 07:21:06;;;;;;;9.95;8.00;;;;;;;;;;4896703;29;20119;-71
2021/04/18 07:23:34;;;;;;;10.00;9.00;;;;;;;;;;4896564;29;20456;-72
2021/04/18 07:26:19;;;;;;;10.48;8.38;;;;;;;;;;4879904;29;20048;-71
2021/04/18 07:28:46;;;;;;;9.75;8.38;;;;;;;;;;4896981;29;20055;-72
2021/04/18 07:31:12;;;;;;;10.15;9.15;;;;;;;;;;4896891;29;20071;-73
2021/04/18 07:34:11;;;;;;;10.10;9.02;;;;;;;;;;4895395;29;20052;-72
2021/04/18 07:36:40;;;;;;;9.20;8.25;;;;;;;;;;4883573;29;20052;-73
2021/04/18 07:39:07;;;;;;;10.35;8.85;;;;;;;;;;4913354;29;20048;-73
2021/04/18 07:41:41;;;;;;;13.23;9.60;;;;;;;;;;4913476;29;20060;-72
2021/04/18 07:44:14;;;;;;;15.40;9.35;;;;;;;;;;4913210;29;20048;-73
2021/04/18 07:46:45;;;;;;;14.35;10.18;;;;;;;;;;4912854;29;20056;-72
2021/04/18 07:49:13;;;;;;;14.85;9.80;;;;;;;;;;4913363;29;20419;-72
2021/04/18 07:51:40;;;;;;;10.45;8.68;;;;;;;;;;4914452;29;20095;-72
2021/04/18 07:54:06;;;;;;;10.63;8.60;;;;;;;;;;4899126;29;20044;-75
2021/04/18 07:56:32;;;;;;;11.70;9.15;;;;;;;;;;4916463;29;20059;-73
2021/04/18 07:58:58;;;;;;;10.05;8.07;;;;;;;;;;4917401;29;20079;-76
2021/04/18 08:01:24;;;;;;;10.38;7.53;;;;;;;;;;4900193;29;20107;-74
2021/04/18 08:03:51;;;;;;;10.25;7.53;;;;;;;;;;4917388;29;20052;-73
2021/04/18 08:06:18;;;;;;;8.15;6.90;;;;;;;;;;4899236;29;20051;-73
2021/04/18 08:08:46;;;;;;;11.70;6.95;;;;;;;;;;4915492;29;20067;-74
2021/04/18 08:11:14;;;;;;;7.68;6.05;;;;;;;;;;4918407;29;20048;-73
2021/04/18 08:13:43;;;;;;;7.47;5.95;;;;;;;;;;4917058;29;20048;-74
2021/04/18 08:16:09;;;;;;;10.18;6.40;;;;;;;;;;4915980;29;20080;-74
2021/04/18 08:18:46;;;;;;;10.05;6.35;;;;;;;;;;4915912;29;20542;-73
2021/04/18 08:21:27;;;;;;;8.07;5.82;;;;;;;;;;4917176;29;20080;-74
2021/04/18 08:23:54;;;;;;;7.88;5.40;;;;;;;;;;4916622;29;20083;-73
2021/04/18 08:26:23;;;;;;;8.38;6.20;;;;;;;;;;4916432;29;20119;-73
2021/04/18 08:28:52;;;;;;;7.97;5.70;;;;;;;;;;4916558;29;20068;-74
2021/04/18 08:31:52;;;;;;;9.70;6.15;;;;;;;;;;4916429;29;20522;-74
2021/04/18 08:34:20;;;;;;;7.88;6.00;;;;;;;;;;4916780;29;20048;-73
2021/04/18 08:36:47;;;;;;;10.95;6.35;;;;;;;;;;4915660;29;20058;-74
2021/04/18 08:39:13;;;;;;;8.13;6.63;;;;;;;;;;4899308;29;20099;-74
2021/04/18 08:41:47;;;;;;;8.13;5.75;;;;;;;;;;4916582;29;20507;-73
2021/04/18 08:44:19;;;;;;;9.38;7.20;;;;;;;;;;4918202;29;20056;-73
2021/04/18 08:46:50;;;;;;;7.85;6.63;;;;;;;;;;4917136;29;20052;-72
2021/04/18 08:49:30;;;;;;;11.15;6.63;;;;;;;;;;4874273;29;20056;-73
2021/04/18 08:51:57;;;;;;;10.38;6.75;;;;;;;;;;4900098;29;20052;-68
2021/04/18 08:54:25;;;;;;;11.38;6.97;;;;;;;;;;4905489;29;20052;-69
2021/04/18 08:56:53;;;;;;;10.35;6.43;;;;;;;;;;4907186;29;20056;-69
2021/04/18 08:59:20;;;;;;;9.98;6.57;;;;;;;;;;4902084;29;20060;-68
2021/04/18 09:01:52;;;;;;;9.13;6.10;;;;;;;;;;4905639;29;20086;-68
2021/04/18 09:04:21;;;;;;;8.07;6.47;;;;;;;;;;4910582;29;20141;-70
2021/04/18 09:06:48;;;;;;;8.13;6.15;;;;;;;;;;4905375;29;20060;-70
2021/04/18 09:09:15;;;;;;;8.80;6.20;;;;;;;;;;4904364;29;20048;-68
2021/04/18 09:11:44;;;;;;;7.30;5.97;;;;;;;;;;4903328;29;20559;-70
2021/04/18 09:14:10;;;;;;;7.22;5.80;;;;;;;;;;4904099;29;20491;-69
2021/04/18 09:16:38;;;;;;;7.45;6.10;;;;;;;;;;4901692;29;20136;-69
2021/04/18 09:19:29;;;;;;;7.82;5.47;;;;;;;;;;4905302;29;20053;-71
2021/04/18 09:22:09;;;;;;;12.85;6.55;;;;;;;;;;4907957;29;20471;-71
2021/04/18 09:25:08;;;;;;;9.30;5.90;;;;;;;;;;4902866;29;20072;-71
2021/04/18 09:27:38;;;;;;;7.20;5.60;;;;;;;;;;4879414;29;20060;-69
2021/04/18 09:30:22;;;;;;;10.48;6.55;;;;;;;;;;4903542;29;20463;-67
2021/04/18 09:32:53;;;;;;;9.23;5.97;;;;;;;;;;4905525;29;20056;-67
2021/04/18 09:35:24;;;;;;;10.65;6.50;;;;;;;;;;4902712;29;20049;-72
2021/04/18 09:37:56;;;;;;;10.70;6.15;;;;;;;;;;4896251;29;20112;-72
2021/04/18 09:40:24;;;;;;;6.97;5.90;;;;;;;;;;4878046;29;20049;-72
2021/04/18 09:42:51;;;;;;;9.07;5.45;;;;;;;;;;4894426;29;20678;-72
2021/04/18 09:45:19;;;;;;;12.20;5.88;;;;;;;;;;4896626;29;20111;-72
2021/04/18 09:47:51;;;;;;;;;;;;;;;;;;4912441;29;20052;-72
2021/04/18 09:50:18;;;;;;;9.18;6.13;;;;;;;;;;4916729;29;19976;-71
2021/04/18 09:52:46;;;;;;;12.40;5.85;;;;;;;;;;4916487;29;20498;-72
2021/04/18 09:55:26;;;;;;;8.50;6.03;;;;;;;;;;4900055;29;20052;-72
2021/04/18 09:57:55;;;;;;;7.35;5.85;;;;;;;;;;4916432;29;20460;-72
2021/04/18 10:00:30;;;;;;;8.23;5.82;;;;;;;;;;4916676;29;20056;-72
2021/04/18 10:03:08;;;;;;;10.15;5.88;;;;;;;;;;4916583;29;20052;-71
2021/04/18 10:05:43;;;;;;;9.57;6.22;;;;;;;;;;4915606;29;20090;-72
2021/04/18 10:08:14;;;;;;;9.60;6.00;;;;;;;;;;4938229;23;20052;-78
2021/04/18 10:10:40;;;;;;;9.43;6.18;;;;;;;;;;4890735;29;20060;-78
2021/04/18 10:13:07;;;;;;;9.18;5.45;;;;;;;;;;4923500;29;20056;-78
2021/04/18 10:15:33;;;;;;;7.40;6.13;;;;;;;;;;4888736;29;20463;-78
2021/04/18 10:18:12;;;;;;;6.53;5.80;;;;;;;;;;4922232;29;20107;-78
2021/04/18 10:20:38;;;;;;;9.18;5.95;;;;;;;;;;4904526;29;20076;-78
2021/04/18 10:23:08;;;;;;;8.10;6.45;;;;;;;;;;4902452;29;20080;-78
2021/04/18 10:25:35;;;;;;;8.57;6.45;;;;;;;;;;4917300;29;20112;-78
2021/04/18 10:28:02;;;;;;;8.52;6.03;;;;;;;;;;4917476;29;20063;-78
2021/04/18 10:30:29;;;;;;;8.10;5.70;;;;;;;;;;4921778;29;20056;-79
2021/04/18 10:32:55;;;;;;;10.75;6.35;;;;;;;;;;4923400;29;20080;-78
2021/04/18 10:35:22;;;;;;;7.32;5.57;;;;;;;;;;4904660;29;20073;-78
2021/04/18 10:37:48;;;;;;;7.80;6.00;;;;;;;;;;4906765;29;20052;-78
2021/04/18 10:40:16;;;;;;;10.68;6.45;;;;;;;;;;4905615;29;20064;-78
2021/04/18 10:42:42;;;;;;;9.70;6.40;;;;;;;;;;4921357;29;20175;-78
2021/04/18 10:45:09;;;;;;;8.25;5.95;;;;;;;;;;4921610;29;20048;-78
2021/04/18 10:47:36;;;;;;;9.32;6.20;;;;;;;;;;4920328;29;20056;-78
2021/04/18 10:50:03;;;;;;;12.82;6.75;;;;;;;;;;4921864;29;20080;-79
2021/04/18 10:52:30;;;;;;;8.13;5.70;;;;;;;;;;4922407;29;20052;-78
2021/04/18 10:54:56;;;;;;;7.28;5.97;;;;;;;;;;4906031;29;20056;-78
2021/04/18 10:57:25;;;;;;;9.05;6.03;;;;;;;;;;4919217;29;20056;-78
2021/04/18 10:59:51;;;;;;;8.23;5.75;;;;;;;;;;4903196;29;20139;-75
2021/04/18 11:02:17;;;;;;;7.97;5.72;;;;;;;;;;4917233;29;20127;-78
2021/04/18 11:04:48;;;;;;;8.98;5.60;;;;;;;;;;4899496;29;20495;-74
2021/04/18 11:07:14;;;;;;;8.95;5.80;;;;;;;;;;4900051;29;20044;-69
2021/04/18 11:09:40;;;;;;;7.28;6.25;;;;;;;;;;4904230;29;20091;-73
2021/04/18 11:12:19;;;;;;;11.07;5.70;;;;;;;;;;4900109;29;20108;-71
2021/04/18 11:14:46;;;;;;;7.15;6.35;;;;;;;;;;4903701;29;20045;-71
2021/04/18 11:17:12;;;;;;;7.57;5.95;;;;;;;;;;4903858;29;20127;-76
2021/04/18 11:19:39;;;;;;;6.88;6.20;;;;;;;;;;4906472;29;20067;-76
2021/04/18 11:22:06;;;;;;;7.63;5.70;;;;;;;;;;4877975;29;20080;-74
2021/04/18 11:24:32;;;;;;;7.60;5.75;;;;;;;;;;4904366;29;20083;-77
2021/04/18 11:26:59;;;;;;;9.73;6.25;;;;;;;;;;4894817;29;20056;-76
2021/04/18 11:29:25;;;;;;;8.65;6.15;;;;;;;;;;4906825;29;20064;-75
2021/04/18 11:31:51;;;;;;;8.68;6.32;;;;;;;;;;4905965;29;20495;-75
2021/04/18 11:34:17;;;;;;;6.97;5.68;;;;;;;;;;4906967;29;20088;-76
2021/04/18 11:36:44;;;;;;;7.40;5.45;;;;;;;;;;4896955;29;20068;-77
2021/04/18 11:39:10;;;;;;;7.40;4.97;;;;;;;;;;4912144;29;20108;-76
2021/04/18 11:41:36;;;;;;;8.52;6.00;;;;;;;;;;4897920;29;20103;-75
2021/04/18 11:44:03;;;;;;;7.28;5.72;;;;;;;;;;4911668;29;20048;-74
2021/04/18 11:46:34;;;;;;;8.05;6.35;;;;;;;;;;4928424;29;20078;-73
2021/04/18 11:49:05;;;;;;;11.35;6.78;;;;;;;;;;4912603;29;20083;-74
2021/04/18 11:51:32;;;;;;;10.45;6.07;;;;;;;;;;4897382;29;20062;-73
2021/04/18 11:53:58;;;;;;;9.20;5.80;;;;;;;;;;4892875;29;20072;-73
2021/04/18 11:56:24;;;;;;;6.72;5.63;;;;;;;;;;4908534;29;20044;-73
2021/04/18 11:58:50;;;;;;;11.52;6.63;;;;;;;;;;4899263;29;20048;-75
2021/04/18 12:01:16;;;;;;;7.18;5.43;;;;;;;;;;4914334;29;20048;-74
2021/04/18 12:03:42;;;;;;;6.82;5.95;;;;;;;;;;4909562;29;20103;-73
2021/04/18 12:06:09;;;;;;;9.13;6.20;;;;;;;;;;4904629;29;20056;-74
2021/04/18 12:08:36;;;;;;;7.80;5.95;;;;;;;;;;4912252;29;20047;-74
2021/04/18 12:11:03;;;;;;;9.57;5.78;;;;;;;;;;4914012;29;20115;-74
2021/04/18 12:13:29;;;;;;;7.97;5.88;;;;;;;;;;4923275;29;20462;-74
2021/04/18 12:15:56;;;;;;;7.57;6.05;;;;;;;;;;4910442;29;20503;-73
2021/04/18 12:18:22;;;;;;;9.07;5.95;;;;;;;;;;4907367;29;20178;-76
2021/04/18 12:20:48;;;;;;;10.52;6.55;;;;;;;;;;4912987;29;20075;-75
2021/04/18 12:23:15;;;;;;;7.32;5.72;;;;;;;;;;4889783;29;20052;-73
2021/04/18 12:25:41;;;;;;;7.50;5.05;;;;;;;;;;4907495;29;20719;-77
2021/04/18 12:28:08;;;;;;;8.80;6.28;;;;;;;;;;4910142;29;20052;-75
2021/04/18 12:30:34;;;;;;;8.50;6.22;;;;;;;;;;4898965;29;20092;-74
2021/04/18 12:33:01;;;;;;;7.63;5.63;;;;;;;;;;4899945;29;20048;-75
2021/04/18 12:35:27;;;;;;;6.80;5.70;;;;;;;;;;4907603;29;20088;-75
2021/04/18 12:37:53;;;;;;;5.68;5.10;;;;;;;;;;4905639;29;20479;-75
2021/04/18 12:40:19;;;;;;;6.90;4.68;;;;;;;;;;4909684;29;20048;-74
2021/04/18 12:42:45;;;;;;;7.18;5.18;;;;;;;;;;4898311;29;20472;-75
2021/04/18 12:45:11;;;;;;;7.15;4.90;;;;;;;;;;4909625;29;20135;-74
2021/04/18 12:47:38;;;;;;;8.82;4.72;;;;;;;;;;4911184;29;20594;-74
2021/04/18 12:50:05;;;;;;;8.52;5.30;;;;;;;;;;4910502;29;20049;-75
2021/04/18 12:52:32;;;;;;;6.95;5.40;;;;;;;;;;4902731;29;20124;-75
2021/04/18 12:54:58;;;;;;;7.00;5.70;;;;;;;;;;4896238;29;20044;-76
2021/04/18 12:57:25;;;;;;;6.22;5.43;;;;;;;;;;4900423;29;20106;-75
2021/04/18 12:59:55;;;;;;;6.47;5.15;;;;;;;;;;4905339;29;20392;-76
2021/04/18 13:02:22;;;;;;;7.97;5.10;;;;;;;;;;4901807;29;20052;-76
2021/04/18 13:04:50;;;;;;;6.82;5.28;;;;;;;;;;4901678;29;20389;-75
2021/04/18 13:07:16;;;;;;;7.15;4.85;;;;;;;;;;4894501;29;20211;-76
2021/04/18 13:09:43;;;;;;;8.55;5.55;;;;;;;;;;4885552;29;20518;-73
2021/04/18 13:12:10;;;;;;;7.10;5.30;;;;;;;;;;4890666;29;20047;-75
2021/04/18 13:14:36;;;;;;;8.25;5.50;;;;;;;;;;4878616;29;20055;-77
2021/04/18 13:17:02;;;;;;;7.32;5.45;;;;;;;;;;4905847;29;20052;-79
2021/04/18 13:19:28;;;;;;;7.88;5.55;;;;;;;;;;4901734;29;20483;-77
2021/04/18 13:21:54;;;;;;;6.18;5.38;;;;;;;;;;4902660;29;20483;-72
2021/04/18 13:24:20;;;;;;;7.95;5.95;;;;;;;;;;4900914;29;20087;-73
2021/04/18 13:26:46;;;;;;;9.38;6.03;;;;;;;;;;4903950;29;20119;-73
2021/04/18 13:29:12;;;;;;;9.88;6.07;;;;;;;;;;4898758;29;20056;-73
2021/04/18 13:31:39;;;;;;;9.27;6.50;;;;;;;;;;4894213;29;20080;-73
2021/04/18 13:34:05;;;;;;;9.15;6.03;;;;;;;;;;4903760;29;20053;-72
2021/04/18 13:36:31;;;;;;;8.05;5.75;;;;;;;;;;4903470;29;20059;-72
2021/04/18 13:38:57;;;;;;;7.30;5.60;;;;;;;;;;4903701;29;20120;-72
2021/04/18 13:41:23;;;;;;;8.50;5.88;;;;;;;;;;4904783;29;20096;-72
2021/04/18 13:43:50;;;;;;;6.60;5.38;;;;;;;;;;4902939;29;20052;-72
2021/04/18 13:46:16;;;;;;;7.90;5.53;;;;;;;;;;4901158;29;20107;-72
2021/04/18 13:48:42;;;;;;;7.72;5.85;;;;;;;;;;4900168;29;20056;-72
2021/04/18 13:51:08;;;;;;;7.78;5.60;;;;;;;;;;4908217;29;20414;-72
2021/04/18 13:53:34;;;;;;;9.35;6.28;;;;;;;;;;4896262;29;20354;-72
2021/04/18 13:56:01;;;;;;;7.93;5.57;;;;;;;;;;4913064;29;20127;-72
2021/04/18 13:58:27;;;;;;;7.38;5.78;;;;;;;;;;4897587;29;20075;-73
2021/04/18 14:00:53;;;;;;;11.13;6.35;;;;;;;;;;4914196;29;20056;-72
2021/04/18 14:03:35;;;;;;;12.55;6.97;;;;;;;;;;4914160;29;20496;-73
2021/04/18 14:06:03;;;;;;;10.40;6.70;;;;;;;;;;4913746;29;20062;-72
2021/04/18 14:08:29;;;;;;;10.45;6.40;;;;;;;;;;4914277;29;20055;-72
2021/04/18 14:10:55;;;;;;;9.15;6.30;;;;;;;;;;4914648;29;20052;-72
2021/04/18 14:13:21;;;;;;;10.23;6.55;;;;;;;;;;4913975;29;20055;-73
2021/04/18 14:15:47;;;;;;;9.65;6.70;;;;;;;;;;4913796;29;20059;-72
2021/04/18 14:18:13;;;;;;;11.35;6.40;;;;;;;;;;4914146;29;20052;-72
2021/04/18 14:20:40;;;;;;;12.18;6.93;;;;;;;;;;4913891;29;20082;-72
2021/04/18 14:23:06;;;;;;;11.68;6.90;;;;;;;;;;4914340;29;20189;-73
2021/04/18 14:25:32;;;;;;;8.95;6.30;;;;;;;;;;4912960;29;20080;-73
2021/04/18 14:27:58;;;;;;;7.90;6.53;;;;;;;;;;4896827;29;20351;-72
2021/04/18 14:30:24;;;;;;;8.35;6.38;;;;;;;;;;4914115;29;20583;-73
2021/04/18 14:32:50;;;;;;;8.20;5.97;;;;;;;;;;4914193;29;20052;-72
2021/04/18 14:35:17;;;;;;;10.45;7.13;;;;;;;;;;4913607;29;20048;-73
2021/04/18 14:37:43;;;;;;;9.15;6.30;;;;;;;;;;4912504;29;20087;-72
2021/04/18 14:40:10;;;;;;;7.45;5.82;;;;;;;;;;4913550;29;20115;-72